sensor_id;sensor_type;location;lat;lon;timestamp;temperature;humidity
70456;DHT22;57916;51.996;5.180;2022-08-24T00:01:21;25.90;57.80
70456;DHT22;57916;51.996;5.180;2022-08-24T00:03:48;25.80;57.90
70456;DHT22;57916;51.996;5.180;2022-08-24T00:06:23;25.80;58.00
70456;DHT22;57916;51.996;5.180;2022-08-24T00:08:51;25.70;58.10
70456;DHT22;57916;51.996;5.180;2022-08-24T00:11:19;25.70;58.00
70456;DHT22;57916;51.996;5.180;2022-08-24T00:13:46;25.70;58.10
70456;DHT22;57916;51.996;5.180;2022-08-24T00:16:15;25.60;58.40
70456;DHT22;57916;51.996;5.180;2022-08-24T00:18:42;25.60;58.60
70456;DHT22;57916;51.996;5.180;2022-08-24T00:21:10;25.60;59.20
70456;DHT22;57916;51.996;5.180;2022-08-24T00:23:38;25.60;59.20
70456;DHT22;57916;51.996;5.180;2022-08-24T00:26:05;25.50;59.30
70456;DHT22;57916;51.996;5.180;2022-08-24T00:28:32;25.50;59.20
70456;DHT22;57916;51.996;5.180;2022-08-24T00:30:59;25.50;59.50
70456;DHT22;57916;51.996;5.180;2022-08-24T00:33:26;25.50;59.60
70456;DHT22;57916;51.996;5.180;2022-08-24T00:35:54;25.40;60.00
70456;DHT22;57916;51.996;5.180;2022-08-24T00:38:21;25.40;60.00
70456;DHT22;57916;51.996;5.180;2022-08-24T00:40:53;25.40;60.00
70456;DHT22;57916;51.996;5.180;2022-08-24T00:43:22;25.40;60.00
70456;DHT22;57916;51.996;5.180;2022-08-24T00:48:29;25.30;60.10
70456;DHT22;57916;51.996;5.180;2022-08-24T00:51:04;25.40;60.20
70456;DHT22;57916;51.996;5.180;2022-08-24T00:53:47;25.30;60.60
70456;DHT22;57916;51.996;5.180;2022-08-24T00:56:20;25.30;60.70
70456;DHT22;57916;51.996;5.180;2022-08-24T00:58:56;25.30;60.50
70456;DHT22;57916;51.996;5.180;2022-08-24T01:01:25;25.30;60.30
70456;DHT22;57916;51.996;5.180;2022-08-24T01:03:54;25.30;60.40
70456;DHT22;57916;51.996;5.180;2022-08-24T01:06:23;25.30;60.20
70456;DHT22;57916;51.996;5.180;2022-08-24T01:08:50;25.30;60.10
70456;DHT22;57916;51.996;5.180;2022-08-24T01:11:25;25.20;60.20
70456;DHT22;57916;51.996;5.180;2022-08-24T01:14:01;25.20;60.00
70456;DHT22;57916;51.996;5.180;2022-08-24T01:16:29;25.20;59.60
70456;DHT22;57916;51.996;5.180;2022-08-24T01:24:39;25.10;60.20
70456;DHT22;57916;51.996;5.180;2022-08-24T01:27:08;25.10;60.50
70456;DHT22;57916;51.996;5.180;2022-08-24T01:29:38;25.10;60.50
70456;DHT22;57916;51.996;5.180;2022-08-24T01:32:07;25.00;60.60
70456;DHT22;57916;51.996;5.180;2022-08-24T01:34:35;25.00;60.60
70456;DHT22;57916;51.996;5.180;2022-08-24T01:37:03;25.00;60.50
70456;DHT22;57916;51.996;5.180;2022-08-24T01:39:33;25.00;60.10
70456;DHT22;57916;51.996;5.180;2022-08-24T01:42:01;24.90;60.30
70456;DHT22;57916;51.996;5.180;2022-08-24T01:44:31;25.00;60.70
70456;DHT22;57916;51.996;5.180;2022-08-24T01:47:03;25.00;61.20
70456;DHT22;57916;51.996;5.180;2022-08-24T01:49:39;25.00;61.30
70456;DHT22;57916;51.996;5.180;2022-08-24T01:52:10;25.00;61.40
70456;DHT22;57916;51.996;5.180;2022-08-24T01:54:38;24.90;61.10
70456;DHT22;57916;51.996;5.180;2022-08-24T01:57:09;24.90;60.80
70456;DHT22;57916;51.996;5.180;2022-08-24T01:59:42;24.90;60.60
70456;DHT22;57916;51.996;5.180;2022-08-24T02:02:30;24.90;60.10
70456;DHT22;57916;51.996;5.180;2022-08-24T02:04:59;24.80;59.90
70456;DHT22;57916;51.996;5.180;2022-08-24T02:07:26;24.80;59.80
70456;DHT22;57916;51.996;5.180;2022-08-24T02:09:55;24.80;60.90
70456;DHT22;57916;51.996;5.180;2022-08-24T02:12:22;24.70;60.10
70456;DHT22;57916;51.996;5.180;2022-08-24T02:14:49;24.70;60.20
70456;DHT22;57916;51.996;5.180;2022-08-24T02:17:17;24.70;60.30
70456;DHT22;57916;51.996;5.180;2022-08-24T02:19:45;24.70;60.20
70456;DHT22;57916;51.996;5.180;2022-08-24T02:22:12;24.60;60.10
70456;DHT22;57916;51.996;5.180;2022-08-24T02:24:39;24.60;60.10
70456;DHT22;57916;51.996;5.180;2022-08-24T02:27:06;24.60;60.20
70456;DHT22;57916;51.996;5.180;2022-08-24T02:29:34;24.60;60.30
70456;DHT22;57916;51.996;5.180;2022-08-24T02:32:01;24.50;60.60
70456;DHT22;57916;51.996;5.180;2022-08-24T02:34:28;24.50;60.90
70456;DHT22;57916;51.996;5.180;2022-08-24T02:36:55;24.50;61.10
70456;DHT22;57916;51.996;5.180;2022-08-24T02:39:22;24.40;61.00
70456;DHT22;57916;51.996;5.180;2022-08-24T02:41:51;24.40;61.40
70456;DHT22;57916;51.996;5.180;2022-08-24T02:44:18;24.40;61.30
70456;DHT22;57916;51.996;5.180;2022-08-24T02:46:46;24.40;61.10
70456;DHT22;57916;51.996;5.180;2022-08-24T02:49:15;24.40;61.40
70456;DHT22;57916;51.996;5.180;2022-08-24T02:51:44;24.40;61.80
70456;DHT22;57916;51.996;5.180;2022-08-24T02:54:16;24.40;61.50
70456;DHT22;57916;51.996;5.180;2022-08-24T02:56:46;24.40;61.60
70456;DHT22;57916;51.996;5.180;2022-08-24T02:59:14;24.40;61.80
70456;DHT22;57916;51.996;5.180;2022-08-24T03:01:42;24.40;61.70
70456;DHT22;57916;51.996;5.180;2022-08-24T03:04:11;24.40;61.80
70456;DHT22;57916;51.996;5.180;2022-08-24T03:06:38;24.40;61.70
70456;DHT22;57916;51.996;5.180;2022-08-24T03:09:06;24.40;61.80
70456;DHT22;57916;51.996;5.180;2022-08-24T03:11:33;24.40;62.00
70456;DHT22;57916;51.996;5.180;2022-08-24T03:14:00;24.40;62.20
70456;DHT22;57916;51.996;5.180;2022-08-24T03:16:28;24.40;62.00
70456;DHT22;57916;51.996;5.180;2022-08-24T03:18:55;24.40;61.90
70456;DHT22;57916;51.996;5.180;2022-08-24T03:21:25;24.40;62.20
70456;DHT22;57916;51.996;5.180;2022-08-24T03:23:52;24.40;62.20
70456;DHT22;57916;51.996;5.180;2022-08-24T03:26:19;24.40;62.00
70456;DHT22;57916;51.996;5.180;2022-08-24T03:28:47;24.40;61.70
70456;DHT22;57916;51.996;5.180;2022-08-24T03:31:16;24.40;61.90
70456;DHT22;57916;51.996;5.180;2022-08-24T03:33:43;24.40;61.90
70456;DHT22;57916;51.996;5.180;2022-08-24T03:36:10;24.40;61.90
70456;DHT22;57916;51.996;5.180;2022-08-24T03:38:40;24.30;61.60
70456;DHT22;57916;51.996;5.180;2022-08-24T03:41:07;24.40;61.60
70456;DHT22;57916;51.996;5.180;2022-08-24T03:43:36;24.30;61.80
70456;DHT22;57916;51.996;5.180;2022-08-24T03:46:20;24.30;61.80
70456;DHT22;57916;51.996;5.180;2022-08-24T03:48:52;24.30;61.90
70456;DHT22;57916;51.996;5.180;2022-08-24T03:51:22;24.30;61.70
70456;DHT22;57916;51.996;5.180;2022-08-24T03:53:51;24.20;61.60
70456;DHT22;57916;51.996;5.180;2022-08-24T03:56:21;24.20;61.70
70456;DHT22;57916;51.996;5.180;2022-08-24T03:58:48;24.20;62.00
70456;DHT22;57916;51.996;5.180;2022-08-24T04:01:16;24.20;62.20
70456;DHT22;57916;51.996;5.180;2022-08-24T04:03:46;24.20;62.20
70456;DHT22;57916;51.996;5.180;2022-08-24T04:06:15;24.20;61.50
70456;DHT22;57916;51.996;5.180;2022-08-24T04:08:43;24.20;61.10
70456;DHT22;57916;51.996;5.180;2022-08-24T04:11:16;24.20;61.30
70456;DHT22;57916;51.996;5.180;2022-08-24T04:13:44;24.10;61.40
70456;DHT22;57916;51.996;5.180;2022-08-24T04:16:14;24.10;61.30
70456;DHT22;57916;51.996;5.180;2022-08-24T04:18:42;24.10;61.10
70456;DHT22;57916;51.996;5.180;2022-08-24T04:21:20;24.00;60.90
70456;DHT22;57916;51.996;5.180;2022-08-24T04:23:48;24.00;61.10
70456;DHT22;57916;51.996;5.180;2022-08-24T04:26:18;24.00;61.20
70456;DHT22;57916;51.996;5.180;2022-08-24T04:29:09;24.00;60.90
70456;DHT22;57916;51.996;5.180;2022-08-24T04:31:42;24.00;60.90
70456;DHT22;57916;51.996;5.180;2022-08-24T04:34:11;23.90;61.00
70456;DHT22;57916;51.996;5.180;2022-08-24T04:36:40;23.90;61.00
70456;DHT22;57916;51.996;5.180;2022-08-24T04:39:08;23.90;61.30
70456;DHT22;57916;51.996;5.180;2022-08-24T04:41:53;23.90;61.20
70456;DHT22;57916;51.996;5.180;2022-08-24T04:44:30;23.80;60.90
70456;DHT22;57916;51.996;5.180;2022-08-24T04:46:59;23.80;61.10
70456;DHT22;57916;51.996;5.180;2022-08-24T04:49:27;23.80;61.00
70456;DHT22;57916;51.996;5.180;2022-08-24T04:51:54;23.80;61.10
70456;DHT22;57916;51.996;5.180;2022-08-24T04:54:21;23.80;61.10
70456;DHT22;57916;51.996;5.180;2022-08-24T04:57:01;23.70;60.90
70456;DHT22;57916;51.996;5.180;2022-08-24T04:59:28;23.70;60.90
70456;DHT22;57916;51.996;5.180;2022-08-24T05:01:55;23.70;60.90
70456;DHT22;57916;51.996;5.180;2022-08-24T05:04:22;23.70;61.10
70456;DHT22;57916;51.996;5.180;2022-08-24T05:06:50;23.70;61.10
70456;DHT22;57916;51.996;5.180;2022-08-24T05:09:20;23.60;61.20
70456;DHT22;57916;51.996;5.180;2022-08-24T05:11:47;23.60;61.40
70456;DHT22;57916;51.996;5.180;2022-08-24T05:14:20;23.60;61.40
70456;DHT22;57916;51.996;5.180;2022-08-24T05:16:53;23.60;61.60
70456;DHT22;57916;51.996;5.180;2022-08-24T05:19:22;23.70;61.50
70456;DHT22;57916;51.996;5.180;2022-08-24T05:21:49;23.70;61.80
70456;DHT22;57916;51.996;5.180;2022-08-24T05:24:17;23.70;61.90
70456;DHT22;57916;51.996;5.180;2022-08-24T05:26:45;23.70;62.00
70456;DHT22;57916;51.996;5.180;2022-08-24T05:29:13;23.70;62.20
70456;DHT22;57916;51.996;5.180;2022-08-24T05:31:45;23.70;62.40
70456;DHT22;57916;51.996;5.180;2022-08-24T05:34:13;23.80;62.70
70456;DHT22;57916;51.996;5.180;2022-08-24T05:36:40;23.80;62.80
70456;DHT22;57916;51.996;5.180;2022-08-24T05:39:15;23.80;62.90
70456;DHT22;57916;51.996;5.180;2022-08-24T05:41:49;23.90;63.10
70456;DHT22;57916;51.996;5.180;2022-08-24T05:44:22;23.90;63.20
70456;DHT22;57916;51.996;5.180;2022-08-24T05:46:57;24.00;63.70
70456;DHT22;57916;51.996;5.180;2022-08-24T05:49:25;24.10;63.70
70456;DHT22;57916;51.996;5.180;2022-08-24T05:51:53;24.20;63.60
70456;DHT22;57916;51.996;5.180;2022-08-24T05:54:20;24.30;63.60
70456;DHT22;57916;51.996;5.180;2022-08-24T05:57:00;24.40;63.50
70456;DHT22;57916;51.996;5.180;2022-08-24T05:59:43;24.50;64.10
70456;DHT22;57916;51.996;5.180;2022-08-24T06:02:16;24.70;64.20
70456;DHT22;57916;51.996;5.180;2022-08-24T06:04:44;24.90;63.70
70456;DHT22;57916;51.996;5.180;2022-08-24T06:07:12;25.20;63.40
70456;DHT22;57916;51.996;5.180;2022-08-24T06:09:43;25.60;63.00
70456;DHT22;57916;51.996;5.180;2022-08-24T06:12:11;26.10;61.90
70456;DHT22;57916;51.996;5.180;2022-08-24T06:14:40;26.80;60.40
70456;DHT22;57916;51.996;5.180;2022-08-24T06:17:10;27.60;58.70
70456;DHT22;57916;51.996;5.180;2022-08-24T06:19:38;28.30;56.70
70456;DHT22;57916;51.996;5.180;2022-08-24T06:22:06;29.00;54.50
70456;DHT22;57916;51.996;5.180;2022-08-24T06:24:35;29.70;52.70
70456;DHT22;57916;51.996;5.180;2022-08-24T06:27:21;30.30;51.60
70456;DHT22;57916;51.996;5.180;2022-08-24T06:30:00;31.00;49.80
70456;DHT22;57916;51.996;5.180;2022-08-24T06:32:46;31.50;48.10
70456;DHT22;57916;51.996;5.180;2022-08-24T06:35:35;32.10;46.60
70456;DHT22;57916;51.996;5.180;2022-08-24T06:38:04;32.60;45.20
70456;DHT22;57916;51.996;5.180;2022-08-24T06:40:32;33.00;44.00
70456;DHT22;57916;51.996;5.180;2022-08-24T06:43:03;33.30;43.30
70456;DHT22;57916;51.996;5.180;2022-08-24T06:45:59;33.60;43.00
70456;DHT22;57916;51.996;5.180;2022-08-24T06:48:30;34.00;42.30
70456;DHT22;57916;51.996;5.180;2022-08-24T06:50:58;34.30;41.20
70456;DHT22;57916;51.996;5.180;2022-08-24T06:53:26;34.50;40.50
70456;DHT22;57916;51.996;5.180;2022-08-24T06:55:56;34.80;40.40
70456;DHT22;57916;51.996;5.180;2022-08-24T06:58:25;34.90;40.20
70456;DHT22;57916;51.996;5.180;2022-08-24T07:00:54;35.00;39.70
70456;DHT22;57916;51.996;5.180;2022-08-24T07:03:25;35.00;40.00
70456;DHT22;57916;51.996;5.180;2022-08-24T07:06:05;35.10;40.20
70456;DHT22;57916;51.996;5.180;2022-08-24T07:08:39;35.20;40.10
70456;DHT22;57916;51.996;5.180;2022-08-24T07:11:09;35.20;39.90
70456;DHT22;57916;51.996;5.180;2022-08-24T07:13:37;35.20;40.90
70456;DHT22;57916;51.996;5.180;2022-08-24T07:16:04;35.30;39.40
70456;DHT22;57916;51.996;5.180;2022-08-24T07:18:34;35.30;39.70
70456;DHT22;57916;51.996;5.180;2022-08-24T07:21:02;35.30;39.40
70456;DHT22;57916;51.996;5.180;2022-08-24T07:23:40;35.30;39.40
70456;DHT22;57916;51.996;5.180;2022-08-24T07:26:13;35.40;39.60
70456;DHT22;57916;51.996;5.180;2022-08-24T07:28:50;35.40;39.10
70456;DHT22;57916;51.996;5.180;2022-08-24T07:31:18;35.40;38.80
70456;DHT22;57916;51.996;5.180;2022-08-24T07:33:57;35.50;38.50
70456;DHT22;57916;51.996;5.180;2022-08-24T07:36:24;35.60;39.30
70456;DHT22;57916;51.996;5.180;2022-08-24T07:38:55;35.60;39.00
70456;DHT22;57916;51.996;5.180;2022-08-24T07:41:24;35.70;38.80
70456;DHT22;57916;51.996;5.180;2022-08-24T07:44:16;35.80;38.60
70456;DHT22;57916;51.996;5.180;2022-08-24T07:46:43;36.00;38.90
70456;DHT22;57916;51.996;5.180;2022-08-24T07:49:12;36.00;38.10
70456;DHT22;57916;51.996;5.180;2022-08-24T07:52:01;36.10;38.40
70456;DHT22;57916;51.996;5.180;2022-08-24T07:54:28;36.10;37.70
70456;DHT22;57916;51.996;5.180;2022-08-24T07:56:58;36.20;37.90
70456;DHT22;57916;51.996;5.180;2022-08-24T07:59:27;36.20;37.90
70456;DHT22;57916;51.996;5.180;2022-08-24T08:01:55;36.20;37.50
70456;DHT22;57916;51.996;5.180;2022-08-24T08:04:22;36.20;37.50
70456;DHT22;57916;51.996;5.180;2022-08-24T08:06:51;36.30;37.50
70456;DHT22;57916;51.996;5.180;2022-08-24T08:09:19;36.30;37.50
70456;DHT22;57916;51.996;5.180;2022-08-24T08:11:47;36.40;37.30
70456;DHT22;57916;51.996;5.180;2022-08-24T08:14:15;36.40;37.30
70456;DHT22;57916;51.996;5.180;2022-08-24T08:16:41;36.40;36.80
70456;DHT22;57916;51.996;5.180;2022-08-24T08:19:09;36.40;36.00
70456;DHT22;57916;51.996;5.180;2022-08-24T08:21:46;36.30;36.10
70456;DHT22;57916;51.996;5.180;2022-08-24T08:24:40;36.30;36.60
70456;DHT22;57916;51.996;5.180;2022-08-24T08:27:11;36.40;36.40
70456;DHT22;57916;51.996;5.180;2022-08-24T08:29:40;36.50;36.40
70456;DHT22;57916;51.996;5.180;2022-08-24T08:32:09;36.60;36.60
70456;DHT22;57916;51.996;5.180;2022-08-24T08:34:37;36.80;36.00
70456;DHT22;57916;51.996;5.180;2022-08-24T08:37:05;37.00;35.90
70456;DHT22;57916;51.996;5.180;2022-08-24T08:39:34;37.20;34.60
70456;DHT22;57916;51.996;5.180;2022-08-24T08:42:26;37.40;34.20
70456;DHT22;57916;51.996;5.180;2022-08-24T08:45:20;37.60;33.60
70456;DHT22;57916;51.996;5.180;2022-08-24T08:50:50;38.10;33.80
70456;DHT22;57916;51.996;5.180;2022-08-24T08:54:37;38.30;33.10
70456;DHT22;57916;51.996;5.180;2022-08-24T09:19:30;39.60;30.10
70456;DHT22;57916;51.996;5.180;2022-08-24T09:22:13;39.60;30.10
70456;DHT22;57916;51.996;5.180;2022-08-24T09:28:14;39.70;29.90
70456;DHT22;57916;51.996;5.180;2022-08-24T09:51:26;40.10;29.30
70456;DHT22;57916;51.996;5.180;2022-08-24T10:02:16;40.40;28.60
70456;DHT22;57916;51.996;5.180;2022-08-24T10:08:08;40.60;28.40
70456;DHT22;57916;51.996;5.180;2022-08-24T10:17:17;40.60;28.10
70456;DHT22;57916;51.996;5.180;2022-08-24T10:31:03;40.50;28.20
70456;DHT22;57916;51.996;5.180;2022-08-24T10:33:58;40.50;28.30
70456;DHT22;57916;51.996;5.180;2022-08-24T10:45:48;40.30;28.10
70456;DHT22;57916;51.996;5.180;2022-08-24T10:53:39;39.30;28.50
70456;DHT22;57916;51.996;5.180;2022-08-24T10:56:15;38.90;28.60
70456;DHT22;57916;51.996;5.180;2022-08-24T11:01:33;38.30;30.30
70456;DHT22;57916;51.996;5.180;2022-08-24T11:04:12;38.10;30.60
70456;DHT22;57916;51.996;5.180;2022-08-24T11:09:51;38.10;31.20
70456;DHT22;57916;51.996;5.180;2022-08-24T11:12:29;38.10;30.20
70456;DHT22;57916;51.996;5.180;2022-08-24T11:15:03;38.00;30.40
70456;DHT22;57916;51.996;5.180;2022-08-24T11:17:32;38.10;31.70
70456;DHT22;57916;51.996;5.180;2022-08-24T11:20:00;38.20;31.60
70456;DHT22;57916;51.996;5.180;2022-08-24T11:22:34;38.40;30.90
70456;DHT22;57916;51.996;5.180;2022-08-24T11:28:19;38.80;30.20
70456;DHT22;57916;51.996;5.180;2022-08-24T11:30:47;38.90;29.60
70456;DHT22;57916;51.996;5.180;2022-08-24T11:35:53;39.30;29.60
70456;DHT22;57916;51.996;5.180;2022-08-24T11:38:24;39.40;30.20
70456;DHT22;57916;51.996;5.180;2022-08-24T11:43:46;39.80;28.50
70456;DHT22;57916;51.996;5.180;2022-08-24T11:52:04;40.30;28.60
70456;DHT22;57916;51.996;5.180;2022-08-24T12:05:39;40.10;27.40
70456;DHT22;57916;51.996;5.180;2022-08-24T12:13:48;40.30;27.30
70456;DHT22;57916;51.996;5.180;2022-08-24T12:16:42;40.30;26.60
70456;DHT22;57916;51.996;5.180;2022-08-24T12:19:19;40.20;26.70
70456;DHT22;57916;51.996;5.180;2022-08-24T12:21:51;40.10;26.40
70456;DHT22;57916;51.996;5.180;2022-08-24T12:27:03;39.90;26.40
70456;DHT22;57916;51.996;5.180;2022-08-24T12:29:49;39.70;27.20
70456;DHT22;57916;51.996;5.180;2022-08-24T12:32:23;39.50;26.50
70456;DHT22;57916;51.996;5.180;2022-08-24T12:37:38;39.50;27.20
70456;DHT22;57916;51.996;5.180;2022-08-24T12:40:28;39.60;27.20
70456;DHT22;57916;51.996;5.180;2022-08-24T12:45:54;39.50;27.40
70456;DHT22;57916;51.996;5.180;2022-08-24T12:56:52;38.80;26.80
70456;DHT22;57916;51.996;5.180;2022-08-24T12:59:46;38.60;27.30
70456;DHT22;57916;51.996;5.180;2022-08-24T13:18:25;37.20;30.20
70456;DHT22;57916;51.996;5.180;2022-08-24T13:23:20;36.90;32.00
70456;DHT22;57916;51.996;5.180;2022-08-24T13:31:32;36.50;32.20
70456;DHT22;57916;51.996;5.180;2022-08-24T13:47:51;35.80;34.70
70456;DHT22;57916;51.996;5.180;2022-08-24T13:59:07;35.50;33.50
70456;DHT22;57916;51.996;5.180;2022-08-24T14:07:00;35.50;34.80
70456;DHT22;57916;51.996;5.180;2022-08-24T14:10:00;35.50;33.70
70456;DHT22;57916;51.996;5.180;2022-08-24T14:18:13;35.30;34.10
70456;DHT22;57916;51.996;5.180;2022-08-24T14:23:29;35.30;33.90
70456;DHT22;57916;51.996;5.180;2022-08-24T14:34:49;35.10;33.90
70456;DHT22;57916;51.996;5.180;2022-08-24T14:37:46;35.10;35.10
70456;DHT22;57916;51.996;5.180;2022-08-24T14:46:21;34.70;34.10
70456;DHT22;57916;51.996;5.180;2022-08-24T15:00:03;34.30;35.10
70456;DHT22;57916;51.996;5.180;2022-08-24T15:05:43;34.40;35.20
70456;DHT22;57916;51.996;5.180;2022-08-24T15:08:31;34.40;33.80
70456;DHT22;57916;51.996;5.180;2022-08-24T15:11:09;34.30;34.10
70456;DHT22;57916;51.996;5.180;2022-08-24T15:13:47;34.30;35.50
70456;DHT22;57916;51.996;5.180;2022-08-24T15:19:05;34.30;35.40
70456;DHT22;57916;51.996;5.180;2022-08-24T15:21:55;34.20;34.80
70456;DHT22;57916;51.996;5.180;2022-08-24T15:30:04;34.00;34.50
70456;DHT22;57916;51.996;5.180;2022-08-24T15:32:52;33.90;35.10
70456;DHT22;57916;51.996;5.180;2022-08-24T15:35:33;33.70;34.70
70456;DHT22;57916;51.996;5.180;2022-08-24T15:38:23;33.70;34.90
70456;DHT22;57916;51.996;5.180;2022-08-24T15:43:29;33.60;35.80
70456;DHT22;57916;51.996;5.180;2022-08-24T15:45:56;33.70;36.20
70456;DHT22;57916;51.996;5.180;2022-08-24T15:48:24;33.70;37.20
70456;DHT22;57916;51.996;5.180;2022-08-24T15:50:53;33.70;36.00
70456;DHT22;57916;51.996;5.180;2022-08-24T15:53:31;33.80;35.90
70456;DHT22;57916;51.996;5.180;2022-08-24T15:58:49;33.70;37.00
70456;DHT22;57916;51.996;5.180;2022-08-24T16:04:11;33.70;36.80
70456;DHT22;57916;51.996;5.180;2022-08-24T16:06:42;33.70;36.90
70456;DHT22;57916;51.996;5.180;2022-08-24T16:17:26;33.60;36.60
70456;DHT22;57916;51.996;5.180;2022-08-24T16:19:58;33.60;37.00
70456;DHT22;57916;51.996;5.180;2022-08-24T16:22:33;33.60;37.50
70456;DHT22;57916;51.996;5.180;2022-08-24T16:30:58;33.70;36.70
70456;DHT22;57916;51.996;5.180;2022-08-24T16:33:44;33.70;36.80
70456;DHT22;57916;51.996;5.180;2022-08-24T16:36:16;33.70;36.80
70456;DHT22;57916;51.996;5.180;2022-08-24T16:38:49;33.70;38.60
70456;DHT22;57916;51.996;5.180;2022-08-24T16:41:22;33.70;38.20
70456;DHT22;57916;51.996;5.180;2022-08-24T16:43:50;33.80;38.40
70456;DHT22;57916;51.996;5.180;2022-08-24T16:46:22;33.80;37.40
70456;DHT22;57916;51.996;5.180;2022-08-24T16:48:49;33.80;38.10
70456;DHT22;57916;51.996;5.180;2022-08-24T16:51:17;33.80;37.80
70456;DHT22;57916;51.996;5.180;2022-08-24T16:53:44;33.70;38.00
70456;DHT22;57916;51.996;5.180;2022-08-24T16:56:11;33.70;38.30
70456;DHT22;57916;51.996;5.180;2022-08-24T16:58:44;33.70;38.70
70456;DHT22;57916;51.996;5.180;2022-08-24T17:01:12;33.70;38.30
70456;DHT22;57916;51.996;5.180;2022-08-24T17:03:39;33.60;39.10
70456;DHT22;57916;51.996;5.180;2022-08-24T17:06:06;33.60;38.80
70456;DHT22;57916;51.996;5.180;2022-08-24T17:08:38;33.60;38.70
70456;DHT22;57916;51.996;5.180;2022-08-24T17:11:05;33.50;39.80
70456;DHT22;57916;51.996;5.180;2022-08-24T17:13:32;33.50;40.10
70456;DHT22;57916;51.996;5.180;2022-08-24T17:16:14;33.40;39.20
70456;DHT22;57916;51.996;5.180;2022-08-24T17:18:41;33.40;39.40
70456;DHT22;57916;51.996;5.180;2022-08-24T17:21:09;33.30;40.90
70456;DHT22;57916;51.996;5.180;2022-08-24T17:23:36;33.30;39.70
70456;DHT22;57916;51.996;5.180;2022-08-24T17:26:09;33.20;38.90
70456;DHT22;57916;51.996;5.180;2022-08-24T17:28:48;33.10;38.60
70456;DHT22;57916;51.996;5.180;2022-08-24T17:31:16;33.00;39.40
70456;DHT22;57916;51.996;5.180;2022-08-24T17:33:43;32.90;39.80
70456;DHT22;57916;51.996;5.180;2022-08-24T17:36:14;32.80;40.70
70456;DHT22;57916;51.996;5.180;2022-08-24T17:38:44;32.80;41.20
70456;DHT22;57916;51.996;5.180;2022-08-24T17:41:14;32.70;41.70
70456;DHT22;57916;51.996;5.180;2022-08-24T17:43:44;32.60;41.80
70456;DHT22;57916;51.996;5.180;2022-08-24T17:46:12;32.60;42.20
70456;DHT22;57916;51.996;5.180;2022-08-24T17:48:44;32.50;42.80
70456;DHT22;57916;51.996;5.180;2022-08-24T17:51:12;32.50;43.10
70456;DHT22;57916;51.996;5.180;2022-08-24T17:53:39;32.40;43.30
70456;DHT22;57916;51.996;5.180;2022-08-24T17:56:07;32.40;43.70
70456;DHT22;57916;51.996;5.180;2022-08-24T17:58:35;32.30;43.50
70456;DHT22;57916;51.996;5.180;2022-08-24T18:01:22;32.30;44.30
70456;DHT22;57916;51.996;5.180;2022-08-24T18:03:49;32.30;44.40
70456;DHT22;57916;51.996;5.180;2022-08-24T18:06:18;32.20;44.50
70456;DHT22;57916;51.996;5.180;2022-08-24T18:08:47;32.20;44.70
70456;DHT22;57916;51.996;5.180;2022-08-24T18:11:14;32.10;44.10
70456;DHT22;57916;51.996;5.180;2022-08-24T18:13:41;32.10;44.50
70456;DHT22;57916;51.996;5.180;2022-08-24T18:16:16;32.00;44.80
70456;DHT22;57916;51.996;5.180;2022-08-24T18:18:51;32.00;44.80
70456;DHT22;57916;51.996;5.180;2022-08-24T18:21:20;31.90;45.60
70456;DHT22;57916;51.996;5.180;2022-08-24T18:23:49;31.80;44.40
70456;DHT22;57916;51.996;5.180;2022-08-24T18:26:27;31.80;44.80
70456;DHT22;57916;51.996;5.180;2022-08-24T18:28:56;31.70;45.10
70456;DHT22;57916;51.996;5.180;2022-08-24T18:31:29;31.70;45.00
70456;DHT22;57916;51.996;5.180;2022-08-24T18:33:56;31.60;45.10
70456;DHT22;57916;51.996;5.180;2022-08-24T18:36:23;31.50;44.80
70456;DHT22;57916;51.996;5.180;2022-08-24T18:38:50;31.50;45.10
70456;DHT22;57916;51.996;5.180;2022-08-24T18:41:19;31.40;45.10
70456;DHT22;57916;51.996;5.180;2022-08-24T18:43:46;31.40;45.30
70456;DHT22;57916;51.996;5.180;2022-08-24T18:46:14;31.30;45.20
70456;DHT22;57916;51.996;5.180;2022-08-24T18:48:41;31.20;45.30
70456;DHT22;57916;51.996;5.180;2022-08-24T18:51:09;31.20;45.50
70456;DHT22;57916;51.996;5.180;2022-08-24T18:53:37;31.10;45.80
70456;DHT22;57916;51.996;5.180;2022-08-24T18:56:05;31.00;45.80
70456;DHT22;57916;51.996;5.180;2022-08-24T18:58:37;31.00;45.70
70456;DHT22;57916;51.996;5.180;2022-08-24T19:01:05;31.00;45.90
70456;DHT22;57916;51.996;5.180;2022-08-24T19:03:32;30.90;46.10
70456;DHT22;57916;51.996;5.180;2022-08-24T19:06:00;30.80;46.20
70456;DHT22;57916;51.996;5.180;2022-08-24T19:08:27;30.80;46.40
70456;DHT22;57916;51.996;5.180;2022-08-24T19:10:54;30.80;46.30
70456;DHT22;57916;51.996;5.180;2022-08-24T19:13:21;30.70;46.40
70456;DHT22;57916;51.996;5.180;2022-08-24T19:15:49;30.70;46.40
70456;DHT22;57916;51.996;5.180;2022-08-24T19:18:18;30.60;46.40
70456;DHT22;57916;51.996;5.180;2022-08-24T19:20:49;30.60;46.70
70456;DHT22;57916;51.996;5.180;2022-08-24T19:23:21;30.50;46.60
70456;DHT22;57916;51.996;5.180;2022-08-24T19:25:49;30.50;46.80
70456;DHT22;57916;51.996;5.180;2022-08-24T19:28:17;30.40;46.90
70456;DHT22;57916;51.996;5.180;2022-08-24T19:30:44;30.40;47.00
70456;DHT22;57916;51.996;5.180;2022-08-24T19:33:16;30.40;47.30
70456;DHT22;57916;51.996;5.180;2022-08-24T19:35:44;30.30;47.50
70456;DHT22;57916;51.996;5.180;2022-08-24T19:38:11;30.30;47.70
70456;DHT22;57916;51.996;5.180;2022-08-24T19:40:38;30.30;47.90
70456;DHT22;57916;51.996;5.180;2022-08-24T19:43:13;30.30;48.30
70456;DHT22;57916;51.996;5.180;2022-08-24T19:45:41;30.30;48.80
70456;DHT22;57916;51.996;5.180;2022-08-24T19:48:36;30.20;49.00
70456;DHT22;57916;51.996;5.180;2022-08-24T19:51:09;30.20;49.30
70456;DHT22;57916;51.996;5.180;2022-08-24T19:53:37;30.20;49.60
70456;DHT22;57916;51.996;5.180;2022-08-24T19:56:05;30.10;49.70
70456;DHT22;57916;51.996;5.180;2022-08-24T20:01:13;30.10;50.20
70456;DHT22;57916;51.996;5.180;2022-08-24T20:03:43;30.00;50.30
70456;DHT22;57916;51.996;5.180;2022-08-24T20:06:11;30.00;50.50
70456;DHT22;57916;51.996;5.180;2022-08-24T20:08:39;30.00;50.90
70456;DHT22;57916;51.996;5.180;2022-08-24T20:11:06;29.90;51.20
70456;DHT22;57916;51.996;5.180;2022-08-24T20:13:34;29.90;51.40
70456;DHT22;57916;51.996;5.180;2022-08-24T20:16:04;29.90;51.60
70456;DHT22;57916;51.996;5.180;2022-08-24T20:18:36;29.80;51.90
70456;DHT22;57916;51.996;5.180;2022-08-24T20:21:04;29.80;52.00
70456;DHT22;57916;51.996;5.180;2022-08-24T20:23:31;29.80;52.10
70456;DHT22;57916;51.996;5.180;2022-08-24T20:26:00;29.70;52.20
70456;DHT22;57916;51.996;5.180;2022-08-24T20:28:36;29.60;52.50
70456;DHT22;57916;51.996;5.180;2022-08-24T20:31:06;29.50;52.70
70456;DHT22;57916;51.996;5.180;2022-08-24T20:33:33;29.50;52.90
70456;DHT22;57916;51.996;5.180;2022-08-24T20:36:00;29.40;53.00